Time;durP1;ratioP1;P1;durP2;ratioP2;P2;SDS_P1;SDS_P2;PMS_P1;PMS_P2;Temp;Humidity;BMP_temperature;BMP_pressure;BME280_temperature;BME280_humidity;BME280_pressure;Samples;Min_cycle;Max_cycle;Signal;HPM_P1;HPM_P2
2022/05/05 00:01:40;;;;;;;11.75;8.30;;;;;;;;;;5036095;28;20040;-66
2022/05/05 00:04:06;;;;;;;16.70;7.80;;;;;;;;;;5041138;28;20032;-66
2022/05/05 00:06:32;;;;;;;13.48;8.60;;;;;;;;;;5038115;28;20112;-66
2022/05/05 00:08:58;;;;;;;10.88;7.25;;;;;;;;;;5043303;28;20037;-65
2022/05/05 00:14:23;;;;;;;8.70;7.60;;;;;;;;;;5036009;28;20032;-66
2022/05/05 00:16:57;;;;;;;9.73;6.50;;;;;;;;;;5034731;28;20029;-66
2022/05/05 00:19:23;;;;;;;6.97;6.22;;;;;;;;;;5034128;28;20033;-66
2022/05/05 00:21:49;;;;;;;9.38;7.05;;;;;;;;;;5036702;28;20025;-66
2022/05/05 00:24:16;;;;;;;10.77;6.70;;;;;;;;;;5037765;28;20091;-66
2022/05/05 00:26:42;;;;;;;10.27;7.10;;;;;;;;;;5031500;28;20095;-66
2022/05/05 00:29:08;;;;;;;8.55;6.53;;;;;;;;;;5034492;28;20033;-66
2022/05/05 00:31:34;;;;;;;8.18;6.63;;;;;;;;;;5040612;28;20482;-66
2022/05/05 00:34:00;;;;;;;7.65;6.95;;;;;;;;;;5036707;28;20501;-66
2022/05/05 00:36:26;;;;;;;10.13;6.00;;;;;;;;;;5036107;28;20052;-66
2022/05/05 00:38:52;;;;;;;6.45;5.85;;;;;;;;;;5031251;28;20017;-66
2022/05/05 00:41:18;;;;;;;7.28;5.82;;;;;;;;;;5037730;28;20037;-65
2022/05/05 00:43:44;;;;;;;7.88;5.72;;;;;;;;;;5034489;28;20429;-66
2022/05/05 00:46:10;;;;;;;7.45;5.90;;;;;;;;;;5034100;28;20037;-66
2022/05/05 00:48:35;;;;;;;8.38;5.63;;;;;;;;;;5034580;28;21232;-65
2022/05/05 00:51:01;;;;;;;6.03;5.53;;;;;;;;;;5034983;28;20441;-66
2022/05/05 00:53:27;;;;;;;6.13;5.47;;;;;;;;;;5037590;28;20033;-65
2022/05/05 00:55:56;;;;;;;9.65;5.70;;;;;;;;;;5039293;28;20044;-65
2022/05/05 00:58:25;;;;;;;6.78;5.57;;;;;;;;;;5041416;28;20055;-66
2022/05/05 01:00:51;;;;;;;8.63;6.22;;;;;;;;;;5032816;28;20037;-65
2022/05/05 01:03:18;;;;;;;9.02;5.32;;;;;;;;;;5033250;28;20032;-65
2022/05/05 01:05:44;;;;;;;9.20;5.80;;;;;;;;;;5036506;28;20520;-61
2022/05/05 01:08:11;;;;;;;7.25;5.50;;;;;;;;;;5044250;28;20025;-65
2022/05/05 01:10:36;;;;;;;9.80;5.53;;;;;;;;;;5037317;28;20091;-65
2022/05/05 01:13:02;;;;;;;6.70;5.90;;;;;;;;;;5042676;28;20037;-65
2022/05/05 01:15:29;;;;;;;6.93;5.15;;;;;;;;;;5043116;28;20028;-65
2022/05/05 01:17:55;;;;;;;8.68;5.43;;;;;;;;;;5032127;28;20041;-65
2022/05/05 01:20:24;;;;;;;5.55;5.00;;;;;;;;;;5034306;28;20563;-66
2022/05/05 01:22:50;;;;;;;5.85;5.32;;;;;;;;;;5038970;28;20390;-65
2022/05/05 01:28:14;;;;;;;5.88;5.30;;;;;;;;;;5036066;28;20033;-65
2022/05/05 01:30:45;;;;;;;6.80;5.20;;;;;;;;;;5032518;28;20034;-65
2022/05/05 01:33:15;;;;;;;7.90;6.07;;;;;;;;;;5038032;28;20032;-65
2022/05/05 01:35:42;;;;;;;6.97;5.15;;;;;;;;;;5038913;28;20051;-65
2022/05/05 01:38:10;;;;;;;15.75;5.60;;;;;;;;;;5034362;28;20086;-65
2022/05/05 01:40:37;;;;;;;6.88;5.35;;;;;;;;;;5043183;28;20061;-66
2022/05/05 01:43:06;;;;;;;5.97;5.43;;;;;;;;;;5031455;28;20445;-66
2022/05/05 01:45:33;;;;;;;7.85;5.45;;;;;;;;;;5031413;28;20359;-65
2022/05/05 01:47:59;;;;;;;7.07;6.38;;;;;;;;;;5030367;28;20079;-66
2022/05/05 01:50:25;;;;;;;8.38;6.13;;;;;;;;;;5034354;28;20029;-66
2022/05/05 01:52:52;;;;;;;7.38;5.63;;;;;;;;;;5044174;28;20402;-65
2022/05/05 01:55:19;;;;;;;6.45;5.72;;;;;;;;;;5040184;28;20106;-66
2022/05/05 01:57:45;;;;;;;7.40;5.65;;;;;;;;;;5040361;28;20041;-65
2022/05/05 02:00:12;;;;;;;7.65;6.05;;;;;;;;;;5038541;28;20033;-65
2022/05/05 02:02:38;;;;;;;6.88;6.03;;;;;;;;;;5039740;28;20037;-65
2022/05/05 02:05:03;;;;;;;7.80;6.13;;;;;;;;;;5038115;28;20386;-65
2022/05/05 02:07:29;;;;;;;7.18;5.75;;;;;;;;;;5044537;28;20075;-65
2022/05/05 02:09:55;;;;;;;8.23;6.32;;;;;;;;;;5034707;28;20435;-65
2022/05/05 02:12:21;;;;;;;6.75;5.97;;;;;;;;;;5037696;28;20112;-65
2022/05/05 02:14:46;;;;;;;6.93;6.22;;;;;;;;;;5044361;28;20021;-65
2022/05/05 02:17:12;;;;;;;7.63;5.78;;;;;;;;;;5039227;28;20100;-65
2022/05/05 02:19:39;;;;;;;6.18;5.57;;;;;;;;;;5037681;28;20397;-65
2022/05/05 02:22:05;;;;;;;8.38;6.25;;;;;;;;;;5042986;28;20033;-66
2022/05/05 02:24:31;;;;;;;6.82;6.22;;;;;;;;;;5037610;28;20025;-65
2022/05/05 02:26:57;;;;;;;7.28;6.03;;;;;;;;;;5042476;28;20037;-66
2022/05/05 02:29:23;;;;;;;7.07;5.78;;;;;;;;;;5038666;28;20031;-65
2022/05/05 02:31:49;;;;;;;7.50;6.75;;;;;;;;;;5039972;28;20525;-66
2022/05/05 02:34:14;;;;;;;7.05;5.80;;;;;;;;;;5033129;28;20064;-65
2022/05/05 02:39:24;;;;;;;20.02;6.85;;;;;;;;;;5035627;28;20030;-65
2022/05/05 02:41:49;;;;;;;6.72;6.13;;;;;;;;;;5035558;28;20036;-65
2022/05/05 02:44:15;;;;;;;6.20;5.60;;;;;;;;;;5045732;28;20035;-65
2022/05/05 02:46:41;;;;;;;6.32;5.55;;;;;;;;;;5041868;28;20030;-65
2022/05/05 02:49:07;;;;;;;8.40;5.82;;;;;;;;;;5037550;28;20025;-66
2022/05/05 02:51:32;;;;;;;6.43;5.50;;;;;;;;;;5033615;28;20065;-65
2022/05/05 02:56:42;;;;;;;7.30;5.95;;;;;;;;;;5038901;28;20024;-65
2022/05/05 02:59:08;;;;;;;6.05;5.45;;;;;;;;;;5040703;28;20043;-68
2022/05/05 03:01:34;;;;;;;7.40;5.55;;;;;;;;;;5033355;28;20037;-65
2022/05/05 03:04:00;;;;;;;6.18;5.55;;;;;;;;;;5040073;28;20033;-65
2022/05/05 03:06:25;;;;;;;5.95;5.35;;;;;;;;;;5037752;28;20040;-65
2022/05/05 03:08:52;;;;;;;5.85;5.35;;;;;;;;;;5055668;28;20041;-65
2022/05/05 03:11:18;;;;;;;8.15;5.85;;;;;;;;;;5041711;28;20482;-65
2022/05/05 03:13:43;;;;;;;6.28;5.60;;;;;;;;;;5038177;28;20025;-65
2022/05/05 03:16:09;;;;;;;6.05;5.45;;;;;;;;;;5039266;28;20041;-65
2022/05/05 03:18:34;;;;;;;6.78;5.50;;;;;;;;;;5034175;28;20029;-65
2022/05/05 03:21:00;;;;;;;7.15;5.60;;;;;;;;;;5035602;28;20032;-64
2022/05/05 03:23:26;;;;;;;6.25;5.40;;;;;;;;;;5038625;28;20067;-65
2022/05/05 03:25:52;;;;;;;9.10;5.90;;;;;;;;;;5038734;28;20025;-65
2022/05/05 03:28:18;;;;;;;6.57;5.72;;;;;;;;;;5038734;28;20506;-65
2022/05/05 03:30:44;;;;;;;8.07;5.93;;;;;;;;;;5038412;28;20060;-64
2022/05/05 03:33:09;;;;;;;6.72;5.15;;;;;;;;;;5034828;28;20359;-64
2022/05/05 03:35:35;;;;;;;6.45;5.65;;;;;;;;;;5038298;28;20052;-67
2022/05/05 03:38:00;;;;;;;6.18;5.68;;;;;;;;;;5037908;28;20048;-65
2022/05/05 03:40:26;;;;;;;7.25;5.63;;;;;;;;;;5041913;28;20079;-64
2022/05/05 03:42:52;;;;;;;6.30;5.68;;;;;;;;;;5035784;28;20365;-64
2022/05/05 03:45:18;;;;;;;9.15;5.57;;;;;;;;;;5035758;28;20029;-64
2022/05/05 03:47:43;;;;;;;7.03;5.50;;;;;;;;;;5040773;28;20104;-65
2022/05/05 03:50:09;;;;;;;11.15;5.75;;;;;;;;;;5037483;28;20044;-67
2022/05/05 03:52:35;;;;;;;5.65;5.15;;;;;;;;;;5038052;28;20022;-64
2022/05/05 03:55:01;;;;;;;7.85;4.85;;;;;;;;;;5041785;28;20545;-64
2022/05/05 03:57:27;;;;;;;5.43;4.93;;;;;;;;;;5036849;28;20071;-64
2022/05/05 03:59:53;;;;;;;9.05;4.65;;;;;;;;;;5034359;28;20057;-64
2022/05/05 04:02:18;;;;;;;10.57;4.65;;;;;;;;;;5039871;28;20111;-64
2022/05/05 04:04:44;;;;;;;5.60;4.85;;;;;;;;;;5036329;28;20030;-64
2022/05/05 04:07:09;;;;;;;6.18;4.93;;;;;;;;;;5037582;28;20021;-65
2022/05/05 04:09:35;;;;;;;6.90;5.20;;;;;;;;;;5036924;28;20052;-64
2022/05/05 04:12:01;;;;;;;5.43;4.40;;;;;;;;;;5035070;28;20485;-65
2022/05/05 04:14:27;;;;;;;4.95;4.55;;;;;;;;;;5039340;28;20029;-64
2022/05/05 04:16:53;;;;;;;5.18;4.68;;;;;;;;;;5037947;28;20112;-63
2022/05/05 04:19:18;;;;;;;5.38;4.90;;;;;;;;;;5036878;28;20025;-65
2022/05/05 04:21:44;;;;;;;5.70;5.10;;;;;;;;;;5036591;28;20033;-64
2022/05/05 04:24:10;;;;;;;6.65;4.40;;;;;;;;;;5035096;28;20025;-65
2022/05/05 04:26:35;;;;;;;7.20;5.13;;;;;;;;;;5043649;28;20053;-65
2022/05/05 04:29:01;;;;;;;5.55;4.95;;;;;;;;;;5038221;28;20379;-64
2022/05/05 04:31:31;;;;;;;5.82;5.20;;;;;;;;;;5035976;28;20025;-64
2022/05/05 04:33:57;;;;;;;5.55;5.05;;;;;;;;;;5050682;28;20036;-64
2022/05/05 04:36:23;;;;;;;8.13;4.88;;;;;;;;;;5039742;28;20025;-65
2022/05/05 04:38:48;;;;;;;6.20;5.32;;;;;;;;;;5043303;28;20494;-65
2022/05/05 04:41:14;;;;;;;5.80;5.30;;;;;;;;;;5039077;28;20033;-65
2022/05/05 04:43:40;;;;;;;6.00;5.40;;;;;;;;;;5033356;28;20025;-65
2022/05/05 04:46:06;;;;;;;9.80;5.63;;;;;;;;;;5034126;28;20032;-65
2022/05/05 04:48:31;;;;;;;6.43;5.82;;;;;;;;;;5036339;28;20032;-66
2022/05/05 04:50:57;;;;;;;7.18;5.90;;;;;;;;;;5036868;28;20501;-65
2022/05/05 04:53:23;;;;;;;9.90;5.75;;;;;;;;;;5047841;28;20024;-66
2022/05/05 04:55:49;;;;;;;6.38;5.72;;;;;;;;;;5053791;28;20041;-66
2022/05/05 04:58:14;;;;;;;6.40;5.80;;;;;;;;;;5037734;28;20498;-66
2022/05/05 05:00:40;;;;;;;7.35;6.65;;;;;;;;;;5042281;28;20063;-66
2022/05/05 05:03:32;;;;;;;7.15;6.20;;;;;;;;;;5035896;28;20065;-65
2022/05/05 05:05:52;;;;;;;10.10;6.22;;;;;;;;;;5035425;28;20032;-66
2022/05/05 05:08:18;;;;;;;9.57;6.57;;;;;;;;;;5037873;28;20035;-68
2022/05/05 05:10:43;;;;;;;8.13;5.78;;;;;;;;;;5036316;28;20037;-66
2022/05/05 05:13:09;;;;;;;6.78;5.88;;;;;;;;;;5032085;28;20391;-65
2022/05/05 05:15:35;;;;;;;7.85;5.85;;;;;;;;;;5036043;28;20029;-65
2022/05/05 05:18:00;;;;;;;8.80;5.93;;;;;;;;;;5037896;28;20033;-68
2022/05/05 05:20:26;;;;;;;9.48;5.80;;;;;;;;;;5035132;28;20037;-66
2022/05/05 05:22:52;;;;;;;8.48;6.18;;;;;;;;;;5042441;28;20037;-68
2022/05/05 05:25:17;;;;;;;13.18;6.13;;;;;;;;;;5037131;28;20390;-67
2022/05/05 05:27:43;;;;;;;6.35;5.75;;;;;;;;;;5039650;28;20469;-67
2022/05/05 05:30:09;;;;;;;8.38;5.25;;;;;;;;;;5038309;28;20033;-67
2022/05/05 05:32:35;;;;;;;5.75;5.25;;;;;;;;;;5039595;28;20036;-68
2022/05/05 05:35:00;;;;;;;8.45;5.82;;;;;;;;;;5040512;28;20402;-66
2022/05/05 05:37:27;;;;;;;8.13;5.55;;;;;;;;;;5041708;28;20359;-67
2022/05/05 05:39:52;;;;;;;6.10;5.50;;;;;;;;;;5041264;28;20048;-67
2022/05/05 05:42:18;;;;;;;8.18;4.57;;;;;;;;;;5045960;28;20025;-67
2022/05/05 05:44:44;;;;;;;5.15;4.65;;;;;;;;;;5043621;28;20029;-68
2022/05/05 05:47:12;;;;;;;5.25;4.78;;;;;;;;;;5040478;28;20029;-67
2022/05/05 05:49:38;;;;;;;7.60;5.68;;;;;;;;;;5043377;28;20035;-67
2022/05/05 05:52:05;;;;;;;8.20;5.50;;;;;;;;;;5036283;28;20535;-67
2022/05/05 05:54:30;;;;;;;7.70;5.65;;;;;;;;;;5040822;28;20048;-67
2022/05/05 05:56:56;;;;;;;7.30;5.07;;;;;;;;;;5034717;28;20037;-67
2022/05/05 05:59:23;;;;;;;5.90;5.05;;;;;;;;;;5040042;28;20046;-67
2022/05/05 06:04:33;;;;;;;6.35;4.50;;;;;;;;;;5037701;28;20052;-66
2022/05/05 06:07:00;;;;;;;4.72;4.32;;;;;;;;;;5042544;28;20083;-66
2022/05/05 06:09:26;;;;;;;4.82;4.18;;;;;;;;;;5041586;28;20033;-66
2022/05/05 06:11:52;;;;;;;4.50;4.10;;;;;;;;;;5041119;28;20041;-66
2022/05/05 06:14:18;;;;;;;5.95;4.43;;;;;;;;;;5042320;28;20060;-66
2022/05/05 06:16:44;;;;;;;8.98;4.80;;;;;;;;;;5038998;28;20053;-66
2022/05/05 06:19:09;;;;;;;5.05;4.10;;;;;;;;;;5041601;28;20029;-67
2022/05/05 06:21:35;;;;;;;5.68;4.15;;;;;;;;;;5040194;28;20389;-67
2022/05/05 06:24:01;;;;;;;7.00;4.38;;;;;;;;;;5046543;28;20571;-67
2022/05/05 06:26:27;;;;;;;9.30;4.10;;;;;;;;;;5048124;28;20488;-66
2022/05/05 06:28:55;;;;;;;5.72;4.35;;;;;;;;;;5039632;28;20030;-67
2022/05/05 06:31:20;;;;;;;8.13;4.30;;;;;;;;;;5039896;28;20060;-67
2022/05/05 06:33:47;;;;;;;5.85;3.80;;;;;;;;;;5042200;28;20028;-66
2022/05/05 06:36:13;;;;;;;6.43;3.90;;;;;;;;;;5070023;28;20556;-66
2022/05/05 06:38:39;;;;;;;4.57;4.20;;;;;;;;;;5035475;28;20029;-67
2022/05/05 06:41:04;;;;;;;4.18;3.88;;;;;;;;;;5046392;28;20455;-64
2022/05/05 06:43:30;;;;;;;5.28;3.88;;;;;;;;;;5040709;28;20029;-67
2022/05/05 06:45:56;;;;;;;4.97;4.00;;;;;;;;;;5035754;28;20034;-64
2022/05/05 06:48:22;;;;;;;5.72;3.80;;;;;;;;;;5039792;28;20410;-64
2022/05/05 06:50:47;;;;;;;4.75;4.03;;;;;;;;;;5034258;28;20037;-67
2022/05/05 06:53:13;;;;;;;6.85;4.10;;;;;;;;;;5044456;28;20041;-66
2022/05/05 06:55:39;;;;;;;8.20;4.25;;;;;;;;;;5037084;28;20044;-66
2022/05/05 06:58:05;;;;;;;5.22;4.43;;;;;;;;;;5039613;28;20040;-66
2022/05/05 07:03:14;;;;;;;8.40;4.93;;;;;;;;;;5040358;28;20355;-67
2022/05/05 07:05:40;;;;;;;5.88;5.28;;;;;;;;;;5041844;28;20044;-67
2022/05/05 07:08:06;;;;;;;5.47;4.88;;;;;;;;;;5039194;28;20049;-66
2022/05/05 07:10:53;;;;;;;9.32;5.15;;;;;;;;;;5037568;28;20037;-66
2022/05/05 07:13:20;;;;;;;8.63;4.97;;;;;;;;;;5041791;28;20040;-67
2022/05/05 07:15:46;;;;;;;7.05;5.53;;;;;;;;;;5045145;28;20528;-67
2022/05/05 07:18:11;;;;;;;8.40;5.40;;;;;;;;;;5040041;28;20041;-67
2022/05/05 07:20:37;;;;;;;5.82;5.03;;;;;;;;;;5059253;28;20033;-67
2022/05/05 07:23:04;;;;;;;8.77;5.60;;;;;;;;;;5039194;28;20037;-67
2022/05/05 07:25:30;;;;;;;7.10;4.93;;;;;;;;;;5041593;28;20060;-67
2022/05/05 07:27:57;;;;;;;6.38;4.10;;;;;;;;;;5038607;28;20057;-67
2022/05/05 07:30:23;;;;;;;6.68;4.45;;;;;;;;;;5039637;28;20032;-66
2022/05/05 07:32:49;;;;;;;4.85;4.45;;;;;;;;;;5036549;28;20445;-67
2022/05/05 07:35:15;;;;;;;5.35;4.15;;;;;;;;;;5037800;28;20025;-67
2022/05/05 07:37:41;;;;;;;6.20;4.45;;;;;;;;;;5036549;28;20056;-67
2022/05/05 07:40:07;;;;;;;12.40;4.47;;;;;;;;;;5038627;28;20060;-67
2022/05/05 07:42:34;;;;;;;5.38;4.60;;;;;;;;;;5036762;28;20028;-67
2022/05/05 07:45:00;;;;;;;5.15;4.40;;;;;;;;;;5035286;28;20119;-68
2022/05/05 07:47:25;;;;;;;6.25;4.10;;;;;;;;;;5036468;28;20570;-68
2022/05/05 07:49:52;;;;;;;7.05;4.38;;;;;;;;;;5034979;28;20589;-68
2022/05/05 07:52:18;;;;;;;5.18;4.43;;;;;;;;;;5038477;28;20040;-68
2022/05/05 07:54:44;;;;;;;5.68;4.47;;;;;;;;;;5037558;28;20128;-67
2022/05/05 07:57:13;;;;;;;8.07;4.47;;;;;;;;;;5033709;28;20045;-68
2022/05/05 07:59:44;;;;;;;5.25;4.75;;;;;;;;;;5044443;28;20024;-68
2022/05/05 08:02:13;;;;;;;4.80;4.40;;;;;;;;;;5037233;28;20508;-67
2022/05/05 08:04:43;;;;;;;6.05;4.78;;;;;;;;;;5041418;28;20025;-68
2022/05/05 08:07:09;;;;;;;8.57;4.72;;;;;;;;;;5041819;28;20375;-68
2022/05/05 08:09:36;;;;;;;10.32;5.60;;;;;;;;;;5035029;28;20048;-69
2022/05/05 08:12:03;;;;;;;7.60;5.18;;;;;;;;;;5035375;28;20401;-68
2022/05/05 08:14:28;;;;;;;5.70;5.15;;;;;;;;;;5036422;28;20040;-68
2022/05/05 08:16:55;;;;;;;6.75;4.40;;;;;;;;;;5042417;28;20041;-68
2022/05/05 08:19:22;;;;;;;9.15;5.25;;;;;;;;;;5037337;28;20021;-69
2022/05/05 08:21:48;;;;;;;5.07;4.60;;;;;;;;;;5037657;28;20029;-69
2022/05/05 08:29:50;;;;;;;7.53;5.90;;;;;;;;;;5017995;28;20040;-69
2022/05/05 08:32:16;;;;;;;6.28;5.63;;;;;;;;;;5017717;28;20042;-68
2022/05/05 08:34:41;;;;;;;4.68;4.28;;;;;;;;;;5017902;28;20080;-69
2022/05/05 08:37:07;;;;;;;4.90;4.40;;;;;;;;;;5022141;28;20021;-69
2022/05/05 08:39:33;;;;;;;4.38;3.90;;;;;;;;;;5016630;28;20029;-69
2022/05/05 08:41:58;;;;;;;5.63;4.53;;;;;;;;;;5019412;28;24962;-69
2022/05/05 08:44:24;;;;;;;6.20;4.32;;;;;;;;;;5019682;28;20453;-69
2022/05/05 08:46:53;;;;;;;7.20;4.68;;;;;;;;;;5022870;28;20216;-69
2022/05/05 08:49:23;;;;;;;7.85;3.70;;;;;;;;;;5017225;28;20104;-69
2022/05/05 08:51:52;;;;;;;4.88;3.92;;;;;;;;;;5014756;28;20034;-69
2022/05/05 08:54:20;;;;;;;6.50;4.05;;;;;;;;;;5018413;28;21660;-69
2022/05/05 08:56:54;;;;;;;3.88;3.55;;;;;;;;;;5019856;28;20112;-69
2022/05/05 08:59:21;;;;;;;5.43;3.72;;;;;;;;;;5017474;28;20026;-69
2022/05/05 09:01:48;;;;;;;4.10;3.58;;;;;;;;;;5020196;28;20029;-69
2022/05/05 09:04:14;;;;;;;5.03;3.33;;;;;;;;;;5030618;28;20049;-69
2022/05/05 09:06:44;;;;;;;4.20;3.63;;;;;;;;;;5036022;28;20058;-68
2022/05/05 09:09:27;;;;;;;4.90;3.55;;;;;;;;;;5041502;28;20032;-69
2022/05/05 09:12:17;;;;;;;4.32;3.35;;;;;;;;;;5031284;28;20029;-69
2022/05/05 09:14:50;;;;;;;6.00;3.70;;;;;;;;;;5030444;28;20026;-69
2022/05/05 09:17:21;;;;;;;5.07;3.17;;;;;;;;;;5033984;28;20021;-69
2022/05/05 09:19:49;;;;;;;6.03;3.60;;;;;;;;;;5039513;28;20024;-69
2022/05/05 09:22:18;;;;;;;6.13;3.63;;;;;;;;;;5037233;28;20147;-69
2022/05/05 09:24:51;;;;;;;5.00;3.67;;;;;;;;;;5034668;28;20532;-68
2022/05/05 09:27:24;;;;;;;4.90;4.00;;;;;;;;;;5035981;28;20033;-68
2022/05/05 09:29:56;;;;;;;6.05;4.18;;;;;;;;;;5039608;28;20044;-68
2022/05/05 09:32:30;;;;;;;3.53;3.20;;;;;;;;;;5031282;28;20048;-69
2022/05/05 09:35:06;;;;;;;6.20;3.10;;;;;;;;;;5038558;28;20056;-69
2022/05/05 09:37:31;;;;;;;3.25;2.55;;;;;;;;;;5034911;28;20441;-68
2022/05/05 09:39:59;;;;;;;5.00;3.13;;;;;;;;;;5034454;28;20029;-68
2022/05/05 09:42:34;;;;;;;2.50;2.30;;;;;;;;;;5036606;28;20405;-68
2022/05/05 09:45:19;;;;;;;3.75;2.17;;;;;;;;;;5033508;28;20040;-68
2022/05/05 09:47:47;;;;;;;4.07;2.38;;;;;;;;;;5041036;28;20122;-68
2022/05/05 09:50:15;;;;;;;2.00;1.90;;;;;;;;;;5037016;28;20367;-69
2022/05/05 09:58:15;;;;;;;3.20;1.70;;;;;;;;;;5039335;28;20033;-68
2022/05/05 10:00:58;;;;;;;1.70;1.60;;;;;;;;;;5034129;28;20100;-67
2022/05/05 10:06:25;;;;;;;1.40;1.30;;;;;;;;;;5034122;28;19924;-68
2022/05/05 10:08:53;;;;;;;1.65;1.55;;;;;;;;;;5032387;28;20680;-68
2022/05/05 10:11:21;;;;;;;1.75;1.52;;;;;;;;;;5031809;28;20048;-68
2022/05/05 10:13:48;;;;;;;3.35;1.73;;;;;;;;;;5043191;28;20056;-68
2022/05/05 10:16:14;;;;;;;2.45;1.83;;;;;;;;;;5044295;28;20393;-68
2022/05/05 10:18:41;;;;;;;2.80;1.98;;;;;;;;;;5046706;28;20045;-68
2022/05/05 10:21:09;;;;;;;1.80;1.70;;;;;;;;;;5037524;28;20101;-68
2022/05/05 10:23:46;;;;;;;1.52;1.42;;;;;;;;;;5039408;28;20025;-68
2022/05/05 10:26:12;;;;;;;6.15;1.92;;;;;;;;;;5041743;28;20039;-68
2022/05/05 10:28:50;;;;;;;2.55;1.77;;;;;;;;;;5040400;28;20075;-68
2022/05/05 10:31:31;;;;;;;1.55;1.45;;;;;;;;;;5055423;28;20044;-68
2022/05/05 10:33:59;;;;;;;1.65;1.55;;;;;;;;;;5040199;28;20035;-67
2022/05/05 10:36:24;;;;;;;1.58;1.48;;;;;;;;;;5036714;28;20152;-67
2022/05/05 10:38:51;;;;;;;1.65;1.50;;;;;;;;;;5038128;28;20045;-69
2022/05/05 10:41:39;;;;;;;1.42;1.33;;;;;;;;;;5039608;28;20027;-67
2022/05/05 10:44:13;;;;;;;1.85;1.65;;;;;;;;;;5039750;28;20486;-68
2022/05/05 10:46:51;;;;;;;1.50;1.40;;;;;;;;;;5039624;28;20029;-68
2022/05/05 10:49:41;;;;;;;2.80;1.48;;;;;;;;;;5042836;28;20021;-68
2022/05/05 10:52:10;;;;;;;1.20;1.20;;;;;;;;;;5035706;28;20033;-68
2022/05/05 10:54:36;;;;;;;1.75;1.10;;;;;;;;;;5038638;28;20122;-68
2022/05/05 10:57:27;;;;;;;2.42;1.20;;;;;;;;;;5034158;28;20482;-68
2022/05/05 11:00:08;;;;;;;1.48;1.38;;;;;;;;;;5034121;28;20029;-67
2022/05/05 11:02:35;;;;;;;1.58;1.48;;;;;;;;;;5034725;28;20478;-68
2022/05/05 11:05:27;;;;;;;3.50;1.35;;;;;;;;;;5046514;28;20044;-67
2022/05/05 11:08:19;;;;;;;;;;;;;;;;;;5039848;28;20398;-68
2022/05/05 11:11:52;;;;;;;1.00;1.00;;;;;;;;;;5030024;28;20027;-68
2022/05/05 11:13:48;;;;;;;1.17;1.17;;;;;;;;;;5027210;28;20039;-67
2022/05/05 11:22:19;;;;;;;1.42;1.33;;;;;;;;;;5038334;28;20508;-67
2022/05/05 11:24:47;;;;;;;1.23;1.20;;;;;;;;;;5039521;28;20065;-67
2022/05/05 11:27:16;;;;;;;1.45;1.33;;;;;;;;;;5044908;28;20107;-67
2022/05/05 11:29:48;;;;;;;1.42;1.33;;;;;;;;;;5037738;28;20450;-67
2022/05/05 11:32:14;;;;;;;1.10;1.10;;;;;;;;;;5038854;28;20045;-67
2022/05/05 11:34:40;;;;;;;1.55;1.45;;;;;;;;;;5039954;28;20398;-67
2022/05/05 11:37:08;;;;;;;1.40;1.30;;;;;;;;;;5035960;28;20040;-67
2022/05/05 11:39:36;;;;;;;1.52;1.35;;;;;;;;;;5034818;28;20040;-67
2022/05/05 11:42:04;;;;;;;2.90;1.38;;;;;;;;;;5035369;28;20138;-66
2022/05/05 11:44:30;;;;;;;1.35;1.17;;;;;;;;;;5035687;28;20029;-66
2022/05/05 11:46:57;;;;;;;1.20;1.20;;;;;;;;;;5038373;28;20077;-66
2022/05/05 11:49:32;;;;;;;4.32;1.30;;;;;;;;;;5037268;28;20029;-66
2022/05/05 11:51:59;;;;;;;2.97;1.10;;;;;;;;;;5036747;28;20255;-66
2022/05/05 11:54:27;;;;;;;1.83;1.20;;;;;;;;;;5034483;28;20049;-60
2022/05/05 11:56:53;;;;;;;1.05;0.95;;;;;;;;;;5040632;28;20033;-66
2022/05/05 12:02:20;;;;;;;1.10;1.10;;;;;;;;;;5034071;28;20037;-67
2022/05/05 12:04:49;;;;;;;1.73;1.45;;;;;;;;;;5037849;28;20030;-65
2022/05/05 12:07:20;;;;;;;1.80;1.40;;;;;;;;;;5035689;28;20048;-67
2022/05/05 12:09:48;;;;;;;6.43;1.55;;;;;;;;;;5039204;28;20025;-67
2022/05/05 12:12:20;;;;;;;3.70;2.13;;;;;;;;;;5033385;28;20033;-66
2022/05/05 12:14:55;;;;;;;2.95;2.75;;;;;;;;;;5039501;28;20128;-66
2022/05/05 12:17:23;;;;;;;6.28;1.92;;;;;;;;;;5039283;28;20025;-67
2022/05/05 12:19:54;;;;;;;10.60;2.50;;;;;;;;;;5042783;28;20488;-66
2022/05/05 12:22:33;;;;;;;9.90;1.67;;;;;;;;;;5041274;28;20078;-66
2022/05/05 12:25:17;;;;;;;4.40;1.40;;;;;;;;;;5040494;28;20109;-67
2022/05/05 12:27:58;;;;;;;1.20;1.20;;;;;;;;;;5045934;28;20067;-66
2022/05/05 12:30:34;;;;;;;0.90;0.90;;;;;;;;;;5043559;28;20033;-66
2022/05/05 12:33:00;;;;;;;1.05;1.00;;;;;;;;;;5031442;28;20286;-65
2022/05/05 12:35:30;;;;;;;0.85;0.85;;;;;;;;;;5043379;28;20429;-66
2022/05/05 12:37:58;;;;;;;1.60;1.20;;;;;;;;;;5036959;28;20033;-66
2022/05/05 12:40:23;;;;;;;3.22;1.23;;;;;;;;;;5038607;28;20048;-65
2022/05/05 12:42:49;;;;;;;1.88;1.10;;;;;;;;;;5031713;28;20047;-65
2022/05/05 12:45:17;;;;;;;4.05;1.17;;;;;;;;;;5037419;28;20060;-65
2022/05/05 12:47:45;;;;;;;0.80;0.75;;;;;;;;;;5038469;28;20024;-65
2022/05/05 12:50:43;;;;;;;0.73;0.73;;;;;;;;;;5035705;28;20029;-67
2022/05/05 13:01:30;;;;;;;2.75;0.70;;;;;;;;;;5036570;28;20037;-65
2022/05/05 13:03:58;;;;;;;0.52;0.52;;;;;;;;;;5043294;28;20433;-65
2022/05/05 13:06:25;;;;;;;3.08;0.80;;;;;;;;;;5034686;28;20033;-65
2022/05/05 13:08:51;;;;;;;2.85;0.70;;;;;;;;;;5031523;28;20033;-65
2022/05/05 13:11:17;;;;;;;0.63;0.57;;;;;;;;;;5037167;28;20112;-65
2022/05/05 13:13:44;;;;;;;2.03;0.55;;;;;;;;;;5036200;28;20812;-65
2022/05/05 13:16:11;;;;;;;0.45;0.45;;;;;;;;;;5035375;28;20095;-65
2022/05/05 13:18:37;;;;;;;2.63;0.70;;;;;;;;;;5036252;28;20078;-65
2022/05/05 13:21:03;;;;;;;2.38;0.77;;;;;;;;;;5038097;28;20029;-65
2022/05/05 13:23:29;;;;;;;1.67;0.80;;;;;;;;;;5038328;28;20033;-65
2022/05/05 13:25:54;;;;;;;0.85;0.60;;;;;;;;;;5038349;28;20076;-65
2022/05/05 13:28:20;;;;;;;0.82;0.60;;;;;;;;;;5038483;28;20160;-65
2022/05/05 13:30:46;;;;;;;0.60;0.60;;;;;;;;;;5037567;28;20040;-64
2022/05/05 13:33:12;;;;;;;16.80;1.10;;;;;;;;;;5038224;28;20068;-66
2022/05/05 13:35:38;;;;;;;1.55;0.60;;;;;;;;;;5040401;28;20033;-64
2022/05/05 13:38:04;;;;;;;2.40;1.15;;;;;;;;;;5032965;28;20075;-64
2022/05/05 13:40:30;;;;;;;1.27;0.60;;;;;;;;;;5035719;28;20079;-64
2022/05/05 13:42:55;;;;;;;2.08;0.50;;;;;;;;;;5040998;28;20079;-64
2022/05/05 13:45:22;;;;;;;0.85;0.85;;;;;;;;;;5042629;28;20028;-64
2022/05/05 13:47:48;;;;;;;0.90;0.40;;;;;;;;;;5039528;28;20025;-65
2022/05/05 13:50:14;;;;;;;2.50;0.50;;;;;;;;;;5047320;28;20778;-65
2022/05/05 13:52:40;;;;;;;0.55;0.40;;;;;;;;;;5041729;28;20029;-64
2022/05/05 13:55:07;;;;;;;0.93;0.40;;;;;;;;;;5043099;28;20494;-65
2022/05/05 13:57:33;;;;;;;0.30;0.30;;;;;;;;;;5036249;28;20041;-65
2022/05/05 13:59:59;;;;;;;1.08;0.40;;;;;;;;;;5045863;28;20091;-64
2022/05/05 14:02:25;;;;;;;1.95;0.45;;;;;;;;;;5043204;28;20475;-64
2022/05/05 14:04:50;;;;;;;0.50;0.50;;;;;;;;;;5035158;28;20522;-65
2022/05/05 14:07:16;;;;;;;1.70;0.38;;;;;;;;;;5041102;28;20060;-64
2022/05/05 14:12:28;;;;;;;1.40;0.70;;;;;;;;;;5039650;28;20074;-66
2022/05/05 14:14:54;;;;;;;0.50;0.50;;;;;;;;;;5034733;28;20033;-64
2022/05/05 14:17:20;;;;;;;1.00;0.63;;;;;;;;;;5037758;28;20088;-64
2022/05/05 14:19:46;;;;;;;1.02;0.80;;;;;;;;;;5047642;28;20060;-64
2022/05/05 14:22:11;;;;;;;1.30;1.27;;;;;;;;;;5043155;28;20083;-65
2022/05/05 14:24:37;;;;;;;2.25;1.35;;;;;;;;;;5045823;28;20079;-64
2022/05/05 14:27:03;;;;;;;3.40;1.38;;;;;;;;;;5045146;28;20030;-65
2022/05/05 14:29:29;;;;;;;3.28;1.38;;;;;;;;;;5036934;28;20049;-66
2022/05/05 14:31:55;;;;;;;0.98;0.98;;;;;;;;;;5049646;28;20041;-65
2022/05/05 14:34:21;;;;;;;3.13;1.20;;;;;;;;;;5042627;28;20028;-63
2022/05/05 14:36:47;;;;;;;1.95;1.63;;;;;;;;;;5041929;28;20033;-64
2022/05/05 14:39:13;;;;;;;1.45;1.35;;;;;;;;;;5039109;28;20021;-65
2022/05/05 14:41:39;;;;;;;1.60;1.50;;;;;;;;;;5042682;28;20104;-64
2022/05/05 14:44:05;;;;;;;2.70;1.40;;;;;;;;;;5043054;28;20032;-66
2022/05/05 14:46:31;;;;;;;3.65;1.50;;;;;;;;;;5037367;28;20398;-65
2022/05/05 14:48:58;;;;;;;3.75;1.30;;;;;;;;;;5042412;28;20072;-65
2022/05/05 14:51:24;;;;;;;3.42;1.33;;;;;;;;;;5036152;28;20036;-65
2022/05/05 14:53:50;;;;;;;5.95;1.15;;;;;;;;;;5036581;28;20017;-65
2022/05/05 14:56:16;;;;;;;3.65;1.20;;;;;;;;;;5037698;28;20391;-64
2022/05/05 14:58:42;;;;;;;2.92;1.20;;;;;;;;;;5038396;28;20037;-64
2022/05/05 15:01:09;;;;;;;2.45;1.20;;;;;;;;;;5041632;28;20029;-63
2022/05/05 15:03:37;;;;;;;1.00;1.00;;;;;;;;;;5048046;28;20025;-64
2022/05/05 15:06:03;;;;;;;5.18;1.55;;;;;;;;;;5036864;28;20021;-65
2022/05/05 15:08:29;;;;;;;3.08;1.20;;;;;;;;;;5041418;28;20025;-64
2022/05/05 15:10:55;;;;;;;2.13;1.30;;;;;;;;;;5041860;28;20036;-64
2022/05/05 15:13:22;;;;;;;3.60;1.08;;;;;;;;;;5035745;28;20108;-65
2022/05/05 15:15:48;;;;;;;4.03;1.25;;;;;;;;;;5037364;28;20032;-64
2022/05/05 15:18:14;;;;;;;2.65;1.25;;;;;;;;;;5043955;28;20033;-65
2022/05/05 15:20:40;;;;;;;3.20;1.40;;;;;;;;;;5033486;28;20375;-64
2022/05/05 15:23:06;;;;;;;1.27;1.27;;;;;;;;;;5041595;28;20029;-64
2022/05/05 15:25:32;;;;;;;1.40;1.00;;;;;;;;;;5044603;28;20067;-64
2022/05/05 15:27:58;;;;;;;1.52;1.42;;;;;;;;;;5039243;28;20151;-64
2022/05/05 15:30:23;;;;;;;4.05;0.95;;;;;;;;;;5035057;28;21980;-65
2022/05/05 15:32:49;;;;;;;2.47;1.55;;;;;;;;;;5039238;28;20037;-65
2022/05/05 15:35:15;;;;;;;2.95;1.20;;;;;;;;;;5042328;28;20049;-64
2022/05/05 15:37:41;;;;;;;1.20;1.15;;;;;;;;;;5038014;28;20038;-65